Time;durP1;ratioP1;P1;durP2;ratioP2;P2;SDS_P1;SDS_P2;PMS_P1;PMS_P2;Temp;Humidity;BMP_temperature;BMP_pressure;BME280_temperature;BME280_humidity;BME280_pressure;Samples;Min_cycle;Max_cycle;Signal;HPM_P1;HPM_P2
2022/11/04 00:01:50;;;;;;;0.50;0.50;;;;;;;;;;1822858;77;25687;-89
2022/11/04 00:04:19;;;;;;;0.40;0.40;;;;;;;;;;1818093;77;26289;-89
2022/11/04 00:06:46;;;;;;;0.60;0.60;;;;;;;;;;1832314;77;26693;-90
2022/11/04 00:09:21;;;;;;;0.50;0.50;;;;;;;;;;1819278;77;26343;-88
2022/11/04 00:14:34;;;;;;;0.50;0.50;;;;;;;;;;1824499;77;26314;-88
2022/11/04 00:33:24;;;;;;;0.50;0.50;;;;;;;;;;1821914;77;26961;-88
2022/11/04 00:33:27;;;;;;;0.45;0.45;;;;;;;;;;1810689;77;26336;-91
2022/11/04 00:35:56;;;;;;;0.50;0.50;;;;;;;;;;1832466;78;26403;-89
2022/11/04 00:38:24;;;;;;;0.40;0.40;;;;;;;;;;1823915;77;26330;-87
2022/11/04 00:40:52;;;;;;;0.50;0.50;;;;;;;;;;1816548;78;26290;-88
2022/11/04 00:43:19;;;;;;;0.50;0.50;;;;;;;;;;1807240;78;26715;-89
2022/11/04 00:45:47;;;;;;;0.53;0.53;;;;;;;;;;1800025;78;26664;-89
2022/11/04 00:48:14;;;;;;;0.40;0.40;;;;;;;;;;1806909;78;26227;-88
2022/11/04 00:50:41;;;;;;;0.50;0.50;;;;;;;;;;1803412;78;26270;-88
2022/11/04 00:53:08;;;;;;;0.60;0.60;;;;;;;;;;1811464;78;26270;-88
2022/11/04 00:55:36;;;;;;;0.50;0.50;;;;;;;;;;1792283;78;26262;-89
2022/11/04 00:58:03;;;;;;;0.57;0.57;;;;;;;;;;1800381;78;26473;-89
2022/11/04 01:00:30;;;;;;;0.42;0.42;;;;;;;;;;1794935;78;26816;-89
2022/11/04 01:02:59;;;;;;;0.55;0.55;;;;;;;;;;1813368;78;26270;-88
2022/11/04 01:05:26;;;;;;;0.50;0.40;;;;;;;;;;1809445;78;26368;-89
2022/11/04 01:07:53;;;;;;;0.42;0.42;;;;;;;;;;1806593;78;26371;-89
2022/11/04 01:10:21;;;;;;;0.50;0.50;;;;;;;;;;1803442;78;26395;-90
2022/11/04 01:12:48;;;;;;;0.60;0.60;;;;;;;;;;1803975;79;26372;-89
2022/11/04 01:15:15;;;;;;;0.50;0.50;;;;;;;;;;1808783;78;26288;-90
2022/11/04 01:17:43;;;;;;;0.50;0.50;;;;;;;;;;1797891;78;26290;-89
2022/11/04 01:20:12;;;;;;;0.50;0.50;;;;;;;;;;1798942;78;26242;-89
2022/11/04 01:22:39;;;;;;;0.42;0.42;;;;;;;;;;1802698;78;26309;-90
2022/11/04 01:25:07;;;;;;;0.40;0.40;;;;;;;;;;1806290;78;26575;-89
2022/11/04 01:27:34;;;;;;;0.47;0.47;;;;;;;;;;1796447;78;26324;-88
2022/11/04 01:30:01;;;;;;;0.42;0.42;;;;;;;;;;1809996;78;26286;-88
2022/11/04 01:32:29;;;;;;;0.50;0.50;;;;;;;;;;1809884;78;26274;-88
2022/11/04 01:34:56;;;;;;;0.50;0.50;;;;;;;;;;1809846;78;26286;-91
2022/11/04 01:37:23;;;;;;;0.53;0.53;;;;;;;;;;1816617;78;26331;-88
2022/11/04 01:39:50;;;;;;;0.57;0.57;;;;;;;;;;1792567;78;26405;-88
2022/11/04 01:42:19;;;;;;;0.50;0.50;;;;;;;;;;1771487;81;26263;-90
2022/11/04 01:44:54;;;;;;;0.40;0.40;;;;;;;;;;1771578;79;26803;-88
2022/11/04 01:47:23;;;;;;;0.50;0.50;;;;;;;;;;1770231;79;26282;-88
2022/11/04 01:50:07;;;;;;;0.50;0.50;;;;;;;;;;1768965;79;26256;-88
2022/11/04 01:52:36;;;;;;;0.50;0.50;;;;;;;;;;1772168;79;26299;-89
2022/11/04 01:55:04;;;;;;;0.68;0.68;;;;;;;;;;1763262;79;26283;-88
2022/11/04 01:57:33;;;;;;;0.57;0.57;;;;;;;;;;1744452;79;26277;-89
2022/11/04 02:00:01;;;;;;;0.60;0.60;;;;;;;;;;1745196;79;26348;-93
2022/11/04 02:02:28;;;;;;;0.50;0.42;;;;;;;;;;1794261;79;26855;-90
2022/11/04 02:04:56;;;;;;;0.60;0.60;;;;;;;;;;1744975;79;26367;-88
2022/11/04 02:07:23;;;;;;;0.50;0.50;;;;;;;;;;1763491;79;26342;-89
2022/11/04 02:09:51;;;;;;;0.50;0.50;;;;;;;;;;1745671;79;26257;-87
2022/11/04 02:15:04;;;;;;;0.70;0.70;;;;;;;;;;1756269;79;26407;-89
2022/11/04 02:17:42;;;;;;;0.60;0.50;;;;;;;;;;1772399;79;26271;-88
2022/11/04 02:20:14;;;;;;;0.60;0.60;;;;;;;;;;1743799;81;26471;-89
2022/11/04 02:22:51;;;;;;;0.50;0.50;;;;;;;;;;1762877;79;26296;-88
2022/11/04 02:25:23;;;;;;;0.40;0.40;;;;;;;;;;1769234;79;26261;-90
2022/11/04 02:27:55;;;;;;;0.68;0.68;;;;;;;;;;1772236;79;26772;-89
2022/11/04 02:30:22;;;;;;;0.50;0.50;;;;;;;;;;1768964;79;25296;-89
2022/11/04 02:32:54;;;;;;;0.47;0.47;;;;;;;;;;1756037;79;26231;-89
2022/11/04 02:35:39;;;;;;;0.42;0.42;;;;;;;;;;1758630;79;26952;-90
2022/11/04 02:38:08;;;;;;;0.47;0.47;;;;;;;;;;1766847;79;26292;-88
2022/11/04 02:40:37;;;;;;;0.55;0.50;;;;;;;;;;1818104;78;26371;-89
2022/11/04 02:43:24;;;;;;;0.40;0.40;;;;;;;;;;1786300;78;26337;-88
2022/11/04 02:45:52;;;;;;;0.50;0.50;;;;;;;;;;1783615;79;26302;-87
2022/11/04 02:48:21;;;;;;;0.50;0.50;;;;;;;;;;1796881;77;26264;-88
2022/11/04 02:50:53;;;;;;;0.60;0.60;;;;;;;;;;1802777;78;26564;-88
2022/11/04 02:53:25;;;;;;;0.50;0.50;;;;;;;;;;1792334;78;26282;-89
2022/11/04 02:55:54;;;;;;;0.50;0.50;;;;;;;;;;1784816;78;26349;-88
2022/11/04 02:58:22;;;;;;;0.42;0.42;;;;;;;;;;1802275;78;25384;-91
2022/11/04 03:00:51;;;;;;;0.37;0.37;;;;;;;;;;1802965;78;26395;-88
2022/11/04 03:03:23;;;;;;;0.50;0.50;;;;;;;;;;1789345;78;26619;-88
2022/11/04 03:05:52;;;;;;;0.40;0.40;;;;;;;;;;1775438;78;26846;-88
2022/11/04 03:08:24;;;;;;;0.50;0.50;;;;;;;;;;1790533;79;26561;-89
2022/11/04 03:10:52;;;;;;;0.40;0.40;;;;;;;;;;1792766;77;27104;-88
2022/11/04 03:13:21;;;;;;;0.50;0.50;;;;;;;;;;1785951;78;26934;-90
2022/11/04 03:15:50;;;;;;;0.42;0.42;;;;;;;;;;1786297;78;26237;-89
2022/11/04 03:18:28;;;;;;;0.50;0.50;;;;;;;;;;1804209;78;26271;-88
2022/11/04 03:20:57;;;;;;;0.50;0.50;;;;;;;;;;1784334;78;26317;-88
2022/11/04 03:23:24;;;;;;;0.40;0.40;;;;;;;;;;1803629;78;26869;-89
2022/11/04 03:25:53;;;;;;;0.55;0.55;;;;;;;;;;1800444;79;26238;-89
2022/11/04 03:28:28;;;;;;;0.47;0.47;;;;;;;;;;1788282;77;26290;-88
2022/11/04 03:30:57;;;;;;;0.37;0.37;;;;;;;;;;1779508;78;26326;-87
2022/11/04 03:33:26;;;;;;;0.40;0.40;;;;;;;;;;1789750;78;26352;-88
2022/11/04 03:35:53;;;;;;;0.50;0.50;;;;;;;;;;1776470;78;26242;-88
2022/11/04 03:38:21;;;;;;;0.53;0.40;;;;;;;;;;1776827;79;26722;-90
2022/11/04 03:40:49;;;;;;;0.60;0.60;;;;;;;;;;1782041;79;26345;-89
2022/11/04 03:43:21;;;;;;;0.40;0.40;;;;;;;;;;1802848;78;26781;-88
2022/11/04 03:45:48;;;;;;;0.40;0.40;;;;;;;;;;1791119;78;27163;-89
2022/11/04 03:48:16;;;;;;;0.40;0.40;;;;;;;;;;1810200;78;26306;-89
2022/11/04 03:50:46;;;;;;;0.37;0.37;;;;;;;;;;1803181;78;26829;-89
2022/11/04 03:53:14;;;;;;;0.50;0.50;;;;;;;;;;1782323;79;26317;-89
2022/11/04 03:55:59;;;;;;;0.80;0.80;;;;;;;;;;1790837;78;25826;-88
2022/11/04 03:58:28;;;;;;;0.53;0.53;;;;;;;;;;1792203;78;26917;-88
2022/11/04 04:00:57;;;;;;;0.50;0.50;;;;;;;;;;1795594;78;27516;-88
2022/11/04 04:03:26;;;;;;;0.50;0.50;;;;;;;;;;1782484;78;26746;-88
2022/11/04 04:06:00;;;;;;;0.40;0.40;;;;;;;;;;1781967;79;26301;-88
2022/11/04 04:08:32;;;;;;;0.45;0.45;;;;;;;;;;1782973;78;26347;-89
2022/11/04 04:11:16;;;;;;;0.40;0.40;;;;;;;;;;1801056;78;26226;-89
2022/11/04 04:13:51;;;;;;;0.62;0.40;;;;;;;;;;1782867;78;26379;-89
2022/11/04 04:16:19;;;;;;;0.50;0.50;;;;;;;;;;1801173;78;26269;-88
2022/11/04 04:18:51;;;;;;;0.30;0.30;;;;;;;;;;1795512;79;26239;-88
2022/11/04 04:21:20;;;;;;;0.50;0.50;;;;;;;;;;1809436;79;26395;-89
2022/11/04 04:29:21;;;;;;;0.40;0.40;;;;;;;;;;1810759;78;26291;-88
2022/11/04 04:31:49;;;;;;;0.35;0.35;;;;;;;;;;1811300;78;26254;-89
2022/11/04 04:34:18;;;;;;;0.55;0.55;;;;;;;;;;1782500;79;26789;-89
2022/11/04 04:36:47;;;;;;;0.60;0.60;;;;;;;;;;1806366;78;26273;-90
2022/11/04 04:45:02;;;;;;;0.33;0.33;;;;;;;;;;1783090;78;26360;-88
2022/11/04 04:47:31;;;;;;;0.53;0.53;;;;;;;;;;1789043;78;25768;-88
2022/11/04 04:49:59;;;;;;;0.40;0.40;;;;;;;;;;1811117;79;25644;-89
2022/11/04 04:52:28;;;;;;;0.45;0.45;;;;;;;;;;1782418;78;26309;-89
2022/11/04 04:54:55;;;;;;;0.40;0.40;;;;;;;;;;1802534;78;26319;-88
2022/11/04 04:57:23;;;;;;;0.50;0.50;;;;;;;;;;1802840;77;26655;-90
2022/11/04 04:59:50;;;;;;;0.40;0.40;;;;;;;;;;1805511;78;26334;-91
2022/11/04 05:02:17;;;;;;;0.35;0.35;;;;;;;;;;1803443;79;26386;-93
2022/11/04 05:04:44;;;;;;;0.30;0.30;;;;;;;;;;1807389;78;26312;-93
2022/11/04 05:07:12;;;;;;;0.40;0.40;;;;;;;;;;1814261;79;26311;-85
2022/11/04 05:09:39;;;;;;;0.30;0.30;;;;;;;;;;1815122;78;26245;-89
2022/11/04 05:12:06;;;;;;;0.40;0.40;;;;;;;;;;1810693;78;26230;-88
2022/11/04 05:14:33;;;;;;;0.40;0.40;;;;;;;;;;1809122;77;26274;-88
2022/11/04 05:17:01;;;;;;;0.40;0.40;;;;;;;;;;1809800;79;25812;-90
2022/11/04 05:19:28;;;;;;;0.30;0.30;;;;;;;;;;1809613;78;26270;-88
2022/11/04 05:21:55;;;;;;;0.40;0.40;;;;;;;;;;1809484;78;26310;-89
2022/11/04 05:24:22;;;;;;;0.40;0.40;;;;;;;;;;1789466;78;26556;-88
2022/11/04 05:26:50;;;;;;;0.33;0.33;;;;;;;;;;1800202;79;26336;-88
2022/11/04 05:29:17;;;;;;;0.30;0.30;;;;;;;;;;1809564;78;26332;-91
2022/11/04 05:31:44;;;;;;;0.25;0.25;;;;;;;;;;1809865;78;26332;-88
2022/11/04 05:34:12;;;;;;;0.53;0.42;;;;;;;;;;1811806;78;26262;-88
2022/11/04 05:36:39;;;;;;;0.30;0.30;;;;;;;;;;1809337;78;26825;-88
2022/11/04 05:39:07;;;;;;;0.40;0.40;;;;;;;;;;1790553;78;26337;-90
2022/11/04 05:41:34;;;;;;;0.30;0.30;;;;;;;;;;1805114;78;26885;-90
2022/11/04 05:44:02;;;;;;;1.17;0.30;;;;;;;;;;1783928;79;26931;-87
2022/11/04 05:46:30;;;;;;;0.40;0.40;;;;;;;;;;1790586;77;26297;-88
2022/11/04 05:48:57;;;;;;;0.40;0.40;;;;;;;;;;1800011;78;26774;-88
2022/11/04 05:51:25;;;;;;;0.40;0.40;;;;;;;;;;1803078;79;26294;-88
2022/11/04 05:53:53;;;;;;;0.50;0.50;;;;;;;;;;1783939;77;26747;-90
2022/11/04 05:56:20;;;;;;;0.42;0.42;;;;;;;;;;1810768;78;26245;-89
2022/11/04 05:58:48;;;;;;;0.30;0.30;;;;;;;;;;1796782;78;26668;-88
2022/11/04 06:01:26;;;;;;;0.72;0.40;;;;;;;;;;1791553;78;26380;-88
2022/11/04 06:03:53;;;;;;;0.30;0.30;;;;;;;;;;1784406;78;26270;-88
2022/11/04 06:06:21;;;;;;;0.40;0.40;;;;;;;;;;1784663;78;26285;-89
2022/11/04 06:08:49;;;;;;;0.40;0.40;;;;;;;;;;1789227;78;26245;-89
2022/11/04 06:11:17;;;;;;;0.40;0.40;;;;;;;;;;1787502;78;26288;-91
2022/11/04 06:13:45;;;;;;;0.33;0.33;;;;;;;;;;1775035;79;26807;-89
2022/11/04 06:16:12;;;;;;;0.50;0.50;;;;;;;;;;1777790;78;26301;-89
2022/11/04 06:18:39;;;;;;;0.40;0.40;;;;;;;;;;1802427;78;26302;-88
2022/11/04 06:21:08;;;;;;;0.30;0.30;;;;;;;;;;1807115;78;26733;-89
2022/11/04 06:23:35;;;;;;;0.50;0.50;;;;;;;;;;1801781;78;26285;-90
2022/11/04 06:26:03;;;;;;;0.50;0.50;;;;;;;;;;1792572;78;26278;-88
2022/11/04 06:28:30;;;;;;;0.33;0.33;;;;;;;;;;1785405;78;26309;-88
2022/11/04 06:30:58;;;;;;;0.30;0.30;;;;;;;;;;1783893;78;25295;-87
2022/11/04 06:33:25;;;;;;;0.28;0.28;;;;;;;;;;1804521;77;26274;-92
2022/11/04 06:35:54;;;;;;;0.20;0.20;;;;;;;;;;1793856;79;26363;-89
2022/11/04 06:38:21;;;;;;;0.25;0.25;;;;;;;;;;1775131;78;26273;-89
2022/11/04 06:40:48;;;;;;;0.35;0.35;;;;;;;;;;1786052;79;26399;-89
2022/11/04 06:43:15;;;;;;;0.20;0.20;;;;;;;;;;1794505;78;26285;-88
2022/11/04 06:45:43;;;;;;;0.40;0.40;;;;;;;;;;1803395;78;26274;-88
2022/11/04 06:48:10;;;;;;;0.57;0.57;;;;;;;;;;1810276;78;26355;-89
2022/11/04 06:50:37;;;;;;;0.50;0.50;;;;;;;;;;1789582;78;26333;-88
2022/11/04 06:53:05;;;;;;;0.20;0.20;;;;;;;;;;1810084;78;26459;-89
2022/11/04 06:55:32;;;;;;;0.50;0.50;;;;;;;;;;1800974;77;26662;-88
2022/11/04 06:57:59;;;;;;;0.40;0.40;;;;;;;;;;1823679;77;26246;-88
2022/11/04 07:00:26;;;;;;;0.40;0.40;;;;;;;;;;1789624;78;26394;-88
2022/11/04 07:02:54;;;;;;;0.30;0.30;;;;;;;;;;1781184;78;26832;-87
2022/11/04 07:05:21;;;;;;;0.30;0.30;;;;;;;;;;1782534;78;26300;-89
2022/11/04 07:07:48;;;;;;;0.30;0.30;;;;;;;;;;1790863;78;26236;-90
2022/11/04 07:10:16;;;;;;;0.40;0.40;;;;;;;;;;1780947;79;26555;-88
2022/11/04 07:12:43;;;;;;;0.50;0.50;;;;;;;;;;1800330;78;26236;-89
2022/11/04 07:15:11;;;;;;;0.30;0.30;;;;;;;;;;1799114;79;26292;-89
2022/11/04 07:17:38;;;;;;;0.35;0.35;;;;;;;;;;1790074;78;26372;-90
2022/11/04 07:20:06;;;;;;;0.15;0.15;;;;;;;;;;1827673;78;26368;-89
2022/11/04 07:22:33;;;;;;;0.35;0.35;;;;;;;;;;1809609;78;26293;-89
2022/11/04 07:25:00;;;;;;;0.40;0.40;;;;;;;;;;1809707;79;26282;-89
2022/11/04 07:27:27;;;;;;;0.40;0.40;;;;;;;;;;1809600;78;26328;-88
2022/11/04 07:29:55;;;;;;;0.42;0.42;;;;;;;;;;1822289;78;26351;-90
2022/11/04 07:32:22;;;;;;;0.40;0.40;;;;;;;;;;1793056;78;26279;-89
2022/11/04 07:34:49;;;;;;;0.25;0.25;;;;;;;;;;1809327;79;26833;-90
2022/11/04 07:37:16;;;;;;;0.50;0.50;;;;;;;;;;1786503;78;26770;-88
2022/11/04 07:39:44;;;;;;;0.23;0.23;;;;;;;;;;1797350;78;26884;-89
2022/11/04 07:42:11;;;;;;;0.45;0.40;;;;;;;;;;1816763;77;26368;-89
2022/11/04 07:44:38;;;;;;;0.40;0.40;;;;;;;;;;1785807;78;26224;-88
2022/11/04 07:47:06;;;;;;;0.50;0.50;;;;;;;;;;1795967;78;26271;-90
2022/11/04 07:49:33;;;;;;;0.50;0.50;;;;;;;;;;1800999;78;26866;-88
2022/11/04 07:52:00;;;;;;;0.40;0.40;;;;;;;;;;1800347;78;26247;-88
2022/11/04 07:54:27;;;;;;;0.47;0.47;;;;;;;;;;1812196;78;26355;-88
2022/11/04 07:56:55;;;;;;;0.37;0.37;;;;;;;;;;1820637;78;26227;-89
2022/11/04 07:59:22;;;;;;;0.33;0.33;;;;;;;;;;1799899;78;26279;-90
2022/11/04 08:01:49;;;;;;;0.30;0.30;;;;;;;;;;1800607;78;26274;-90
2022/11/04 08:04:20;;;;;;;0.50;0.45;;;;;;;;;;1797374;78;26263;-89
2022/11/04 08:06:47;;;;;;;0.30;0.30;;;;;;;;;;1777330;79;26734;-89
2022/11/04 08:09:14;;;;;;;0.30;0.30;;;;;;;;;;1773250;79;26287;-89
2022/11/04 08:11:42;;;;;;;0.40;0.40;;;;;;;;;;1797162;78;26626;-90
2022/11/04 08:14:10;;;;;;;0.40;0.40;;;;;;;;;;1785295;79;26356;-89
2022/11/04 08:16:37;;;;;;;0.20;0.20;;;;;;;;;;1796016;78;26268;-89
2022/11/04 08:19:04;;;;;;;0.30;0.30;;;;;;;;;;1774126;78;26623;-88
2022/11/04 08:21:32;;;;;;;0.25;0.25;;;;;;;;;;1775916;78;26324;-89
2022/11/04 08:24:02;;;;;;;0.25;0.25;;;;;;;;;;1791555;78;26713;-90
2022/11/04 08:26:28;;;;;;;0.30;0.30;;;;;;;;;;1794117;78;26412;-88
2022/11/04 08:28:55;;;;;;;0.40;0.40;;;;;;;;;;1793578;78;26290;-89
2022/11/04 08:31:24;;;;;;;0.30;0.30;;;;;;;;;;1772849;79;26308;-88
2022/11/04 08:33:52;;;;;;;0.33;0.33;;;;;;;;;;1791416;79;26300;-88
2022/11/04 08:36:21;;;;;;;0.23;0.23;;;;;;;;;;1772632;78;26279;-89
2022/11/04 08:38:48;;;;;;;0.50;0.50;;;;;;;;;;1773664;78;26242;-91
2022/11/04 08:41:18;;;;;;;0.47;0.47;;;;;;;;;;1800314;78;26349;-89
2022/11/04 08:43:46;;;;;;;0.35;0.35;;;;;;;;;;1814167;78;26420;-90
2022/11/04 08:46:14;;;;;;;0.37;0.37;;;;;;;;;;1788536;78;26285;-88
2022/11/04 08:48:41;;;;;;;0.42;0.42;;;;;;;;;;1775891;79;26339;-88
2022/11/04 08:51:13;;;;;;;0.30;0.30;;;;;;;;;;1785948;78;26266;-88
2022/11/04 08:53:40;;;;;;;0.50;0.50;;;;;;;;;;1799840;79;26281;-89
2022/11/04 08:56:15;;;;;;;0.53;0.25;;;;;;;;;;1775616;79;27641;-89
2022/11/04 08:58:42;;;;;;;0.35;0.35;;;;;;;;;;1803164;79;26743;-88
2022/11/04 09:01:10;;;;;;;0.37;0.37;;;;;;;;;;1790710;78;26679;-87
2022/11/04 09:03:37;;;;;;;0.40;0.40;;;;;;;;;;1789831;78;26279;-91
2022/11/04 09:06:06;;;;;;;0.40;0.40;;;;;;;;;;1805329;78;26274;-88
2022/11/04 09:08:33;;;;;;;0.35;0.35;;;;;;;;;;1804852;78;26259;-88
2022/11/04 09:11:01;;;;;;;0.42;0.42;;;;;;;;;;1804950;79;26341;-88
2022/11/04 09:13:28;;;;;;;0.50;0.50;;;;;;;;;;1776313;78;26292;-88
2022/11/04 09:15:55;;;;;;;0.40;0.40;;;;;;;;;;1792212;79;26356;-90
2022/11/04 09:18:22;;;;;;;0.40;0.40;;;;;;;;;;1776249;79;26269;-89
2022/11/04 09:20:50;;;;;;;0.50;0.50;;;;;;;;;;1795387;79;26919;-87
2022/11/04 09:23:17;;;;;;;0.47;0.47;;;;;;;;;;1778851;79;26715;-88
2022/11/04 09:25:44;;;;;;;0.40;0.40;;;;;;;;;;1803041;79;26722;-88
2022/11/04 09:28:11;;;;;;;0.40;0.40;;;;;;;;;;1790034;78;26352;-92
2022/11/04 09:30:39;;;;;;;0.30;0.30;;;;;;;;;;1795744;78;26270;-89
2022/11/04 09:33:06;;;;;;;0.45;0.40;;;;;;;;;;1791313;79;26366;-88
2022/11/04 09:35:33;;;;;;;0.30;0.30;;;;;;;;;;1804607;79;26270;-87
2022/11/04 09:38:01;;;;;;;0.40;0.40;;;;;;;;;;1792119;79;26249;-88
2022/11/04 09:40:28;;;;;;;0.40;0.40;;;;;;;;;;1804664;79;26298;-92
2022/11/04 09:42:57;;;;;;;0.30;0.30;;;;;;;;;;1807056;79;25815;-90
2022/11/04 09:45:26;;;;;;;0.30;0.30;;;;;;;;;;1805840;78;27201;-87
2022/11/04 09:47:55;;;;;;;0.33;0.33;;;;;;;;;;1809923;78;27662;-88
2022/11/04 09:50:29;;;;;;;0.30;0.30;;;;;;;;;;1798378;78;26392;-89
2022/11/04 09:52:58;;;;;;;0.37;0.37;;;;;;;;;;1824143;78;26709;-88
2022/11/04 09:55:27;;;;;;;0.62;0.62;;;;;;;;;;1811205;77;26742;-88
2022/11/04 09:57:57;;;;;;;0.40;0.40;;;;;;;;;;1837298;77;26749;-89
2022/11/04 10:00:25;;;;;;;0.30;0.30;;;;;;;;;;1793636;78;26305;-92
2022/11/04 10:03:10;;;;;;;0.60;0.60;;;;;;;;;;1824163;78;25732;-89
2022/11/04 10:05:45;;;;;;;0.25;0.25;;;;;;;;;;1782852;78;26277;-89
2022/11/04 10:08:29;;;;;;;0.50;0.50;;;;;;;;;;1803029;78;26289;-89
2022/11/04 10:11:10;;;;;;;0.40;0.40;;;;;;;;;;1810025;79;26805;-89
2022/11/04 10:13:55;;;;;;;0.30;0.30;;;;;;;;;;1769906;78;26366;-88
2022/11/04 10:16:24;;;;;;;0.40;0.40;;;;;;;;;;1813553;78;25763;-90
2022/11/04 10:18:59;;;;;;;0.40;0.40;;;;;;;;;;1809175;78;26796;-90
2022/11/04 10:21:30;;;;;;;0.40;0.40;;;;;;;;;;1783695;78;26363;-92
2022/11/04 10:23:59;;;;;;;0.60;0.60;;;;;;;;;;1784008;79;26308;-93
2022/11/04 10:26:28;;;;;;;0.40;0.40;;;;;;;;;;1822775;78;26590;-89
2022/11/04 10:28:57;;;;;;;0.45;0.45;;;;;;;;;;1815371;78;26322;-87
2022/11/04 10:31:24;;;;;;;0.60;0.60;;;;;;;;;;1794066;78;26347;-88
2022/11/04 10:33:53;;;;;;;0.40;0.40;;;;;;;;;;1800656;78;27483;-87
2022/11/04 10:36:20;;;;;;;0.50;0.50;;;;;;;;;;1796838;78;26270;-88
2022/11/04 10:38:55;;;;;;;0.40;0.40;;;;;;;;;;1815073;78;26300;-89
2022/11/04 10:41:36;;;;;;;0.30;0.30;;;;;;;;;;1810014;78;26364;-91
2022/11/04 10:44:07;;;;;;;0.35;0.35;;;;;;;;;;1796512;78;26321;-88
2022/11/04 10:46:48;;;;;;;0.40;0.40;;;;;;;;;;1780084;79;26380;-88
2022/11/04 10:49:33;;;;;;;0.40;0.40;;;;;;;;;;1792498;78;26206;-88
2022/11/04 10:52:00;;;;;;;0.40;0.40;;;;;;;;;;1784837;78;26366;-88
2022/11/04 10:54:28;;;;;;;0.40;0.40;;;;;;;;;;1803591;77;26333;-88
2022/11/04 10:56:55;;;;;;;0.47;0.45;;;;;;;;;;1821519;78;26723;-88
2022/11/04 10:59:24;;;;;;;0.40;0.40;;;;;;;;;;1788483;78;26294;-88
2022/11/04 11:01:53;;;;;;;0.40;0.40;;;;;;;;;;1782694;78;26411;-90
2022/11/04 11:04:25;;;;;;;0.40;0.40;;;;;;;;;;1790220;78;26331;-89
2022/11/04 11:06:52;;;;;;;0.35;0.35;;;;;;;;;;1803406;79;25917;-90
2022/11/04 11:09:28;;;;;;;0.40;0.40;;;;;;;;;;1785029;78;26305;-89
2022/11/04 11:11:54;;;;;;;0.40;0.40;;;;;;;;;;1796028;78;26375;-88
2022/11/04 11:14:23;;;;;;;0.40;0.40;;;;;;;;;;1815828;78;26249;-93
2022/11/04 11:16:50;;;;;;;0.30;0.30;;;;;;;;;;1777921;79;26386;-93
2022/11/04 11:19:18;;;;;;;0.40;0.40;;;;;;;;;;1799644;75;26284;-91
2022/11/04 11:21:47;;;;;;;0.40;0.40;;;;;;;;;;1791160;78;25270;-88
2022/11/04 11:24:19;;;;;;;0.33;0.30;;;;;;;;;;1787416;78;26257;-88
2022/11/04 11:26:48;;;;;;;0.37;0.37;;;;;;;;;;1798813;78;26873;-89
2022/11/04 11:29:17;;;;;;;0.55;0.55;;;;;;;;;;1794825;78;26321;-89
2022/11/04 11:31:44;;;;;;;0.47;0.47;;;;;;;;;;1792419;79;25362;-88
2022/11/04 11:34:16;;;;;;;0.20;0.20;;;;;;;;;;1794253;77;26654;-88
2022/11/04 11:36:46;;;;;;;0.40;0.40;;;;;;;;;;1797480;78;26792;-91
2022/11/04 11:39:15;;;;;;;0.40;0.40;;;;;;;;;;1784383;79;26321;-87
2022/11/04 11:41:50;;;;;;;0.20;0.20;;;;;;;;;;1801796;78;26319;-88
2022/11/04 11:44:19;;;;;;;0.42;0.42;;;;;;;;;;1791026;78;26618;-89
2022/11/04 11:46:50;;;;;;;0.40;0.40;;;;;;;;;;1800977;78;26232;-89
2022/11/04 11:49:29;;;;;;;0.30;0.30;;;;;;;;;;1809646;78;26365;-88
2022/11/04 11:51:58;;;;;;;0.37;0.37;;;;;;;;;;1797501;78;26277;-88
2022/11/04 11:54:36;;;;;;;0.50;0.40;;;;;;;;;;1786855;78;26291;-89
2022/11/04 11:57:07;;;;;;;0.50;0.50;;;;;;;;;;1813206;77;26270;-89
2022/11/04 11:59:38;;;;;;;0.30;0.30;;;;;;;;;;1784289;78;26284;-88
2022/11/04 12:02:22;;;;;;;0.30;0.30;;;;;;;;;;1792672;78;26365;-88
2022/11/04 12:04:50;;;;;;;1.35;0.40;;;;;;;;;;1808469;78;26336;-90
2022/11/04 12:07:19;;;;;;;0.40;0.40;;;;;;;;;;1809517;78;26730;-89
2022/11/04 12:09:47;;;;;;;0.40;0.40;;;;;;;;;;1819409;78;26233;-88
2022/11/04 12:12:16;;;;;;;0.40;0.40;;;;;;;;;;1819961;78;26247;-88
2022/11/04 12:14:48;;;;;;;0.40;0.40;;;;;;;;;;1791305;78;25256;-88
2022/11/04 12:17:33;;;;;;;0.42;0.42;;;;;;;;;;1790235;78;26826;-89
2022/11/04 12:20:14;;;;;;;0.28;0.28;;;;;;;;;;1798589;78;26362;-89
2022/11/04 12:22:52;;;;;;;0.50;0.50;;;;;;;;;;1799960;78;26300;-88
2022/11/04 12:25:33;;;;;;;0.30;0.30;;;;;;;;;;1783358;78;26714;-90
2022/11/04 12:28:21;;;;;;;0.25;0.25;;;;;;;;;;1778155;78;26267;-90
2022/11/04 12:30:49;;;;;;;0.40;0.40;;;;;;;;;;1778274;78;26735;-87
2022/11/04 12:33:26;;;;;;;0.50;0.50;;;;;;;;;;1781410;79;26294;-88
2022/11/04 12:36:04;;;;;;;0.30;0.30;;;;;;;;;;1767590;79;26305;-88
2022/11/04 12:38:39;;;;;;;0.33;0.33;;;;;;;;;;1798854;77;26835;-88
2022/11/04 12:41:10;;;;;;;0.50;0.50;;;;;;;;;;1752535;79;27412;-87
2022/11/04 12:43:40;;;;;;;0.40;0.40;;;;;;;;;;1767639;78;26393;-88
2022/11/04 12:46:14;;;;;;;0.30;0.30;;;;;;;;;;1817317;77;26287;-88
2022/11/04 12:48:58;;;;;;;0.23;0.23;;;;;;;;;;1824358;77;26256;-88
2022/11/04 12:51:30;;;;;;;0.40;0.40;;;;;;;;;;1802285;77;26248;-90
2022/11/04 12:54:05;;;;;;;0.40;0.40;;;;;;;;;;1838429;75;26252;-89
2022/11/04 12:56:37;;;;;;;0.28;0.28;;;;;;;;;;1864021;75;26270;-91
2022/11/04 12:59:08;;;;;;;0.37;0.33;;;;;;;;;;1819058;77;26280;-89
2022/11/04 13:01:37;;;;;;;0.37;0.37;;;;;;;;;;1835395;76;26298;-88
2022/11/04 13:04:06;;;;;;;0.23;0.23;;;;;;;;;;1843497;76;26337;-88
2022/11/04 13:06:35;;;;;;;0.95;0.30;;;;;;;;;;1839223;75;26254;-87
2022/11/04 13:09:07;;;;;;;0.20;0.20;;;;;;;;;;1837943;76;26277;-88
2022/11/04 13:11:36;;;;;;;0.40;0.40;;;;;;;;;;1861239;75;26300;-88
2022/11/04 13:14:05;;;;;;;0.40;0.40;;;;;;;;;;1850207;77;26264;-88
2022/11/04 13:16:34;;;;;;;0.40;0.40;;;;;;;;;;1846425;77;26282;-88
2022/11/04 13:19:01;;;;;;;0.42;0.42;;;;;;;;;;1848537;76;25182;-88
2022/11/04 13:21:30;;;;;;;0.20;0.20;;;;;;;;;;1857039;76;26255;-87
2022/11/04 13:23:59;;;;;;;0.30;0.30;;;;;;;;;;1839738;75;26318;-86
2022/11/04 13:26:26;;;;;;;0.20;0.20;;;;;;;;;;1857261;75;26242;-87
2022/11/04 13:28:58;;;;;;;0.25;0.25;;;;;;;;;;1843828;76;26312;-87
2022/11/04 13:31:30;;;;;;;0.47;0.47;;;;;;;;;;1853146;76;26294;-88
2022/11/04 13:34:08;;;;;;;0.30;0.30;;;;;;;;;;1852592;75;26328;-88
2022/11/04 13:36:46;;;;;;;0.30;0.30;;;;;;;;;;1848937;76;26263;-87
2022/11/04 13:39:15;;;;;;;0.30;0.30;;;;;;;;;;1848998;75;27322;-90
2022/11/04 13:41:59;;;;;;;0.45;0.45;;;;;;;;;;1866827;75;26254;-88
2022/11/04 13:44:30;;;;;;;0.30;0.30;;;;;;;;;;1839567;75;26205;-88
2022/11/04 13:46:59;;;;;;;0.23;0.23;;;;;;;;;;1855505;75;26863;-88
2022/11/04 13:49:32;;;;;;;0.30;0.30;;;;;;;;;;1852017;75;26271;-88
2022/11/04 13:52:10;;;;;;;0.50;0.50;;;;;;;;;;1853551;76;26777;-89
2022/11/04 13:54:45;;;;;;;0.40;0.40;;;;;;;;;;1832161;77;26304;-86
2022/11/04 13:57:14;;;;;;;0.20;0.20;;;;;;;;;;1844812;76;26233;-88
2022/11/04 13:59:43;;;;;;;0.30;0.30;;;;;;;;;;1833987;75;26363;-89
2022/11/04 14:02:20;;;;;;;0.40;0.40;;;;;;;;;;1832353;77;26374;-88
2022/11/04 14:04:47;;;;;;;0.40;0.40;;;;;;;;;;1833503;75;26303;-89
2022/11/04 14:07:16;;;;;;;0.35;0.35;;;;;;;;;;1848429;77;26321;-88
2022/11/04 14:09:45;;;;;;;0.30;0.30;;;;;;;;;;1855163;77;26351;-88
2022/11/04 14:12:18;;;;;;;0.40;0.40;;;;;;;;;;1854089;75;26249;-88
2022/11/04 14:14:44;;;;;;;0.50;0.50;;;;;;;;;;1833747;77;26357;-88
2022/11/04 14:17:30;;;;;;;0.50;0.50;;;;;;;;;;1831749;76;26209;-88
2022/11/04 14:19:59;;;;;;;0.35;0.30;;;;;;;;;;1832028;76;26283;-88
2022/11/04 14:22:45;;;;;;;0.62;0.40;;;;;;;;;;1832080;75;26307;-89
2022/11/04 14:25:26;;;;;;;0.40;0.40;;;;;;;;;;1856863;75;26217;-88
2022/11/04 14:27:55;;;;;;;0.30;0.30;;;;;;;;;;1851122;77;26275;-88
2022/11/04 14:30:36;;;;;;;0.30;0.30;;;;;;;;;;1832132;77;26248;-91
2022/11/04 14:33:07;;;;;;;0.42;0.42;;;;;;;;;;1843573;75;26265;-88
2022/11/04 14:35:35;;;;;;;0.40;0.40;;;;;;;;;;1852361;75;27556;-89
2022/11/04 14:38:07;;;;;;;0.40;0.40;;;;;;;;;;1861016;77;26299;-92
2022/11/04 14:40:49;;;;;;;0.40;0.40;;;;;;;;;;1858698;77;26309;-89
2022/11/04 14:43:15;;;;;;;0.40;0.40;;;;;;;;;;1867255;75;26660;-90
2022/11/04 14:45:42;;;;;;;0.35;0.35;;;;;;;;;;1855714;75;25691;-91
2022/11/04 14:48:18;;;;;;;0.40;0.40;;;;;;;;;;1850550;75;26236;-88
2022/11/04 14:50:47;;;;;;;0.33;0.33;;;;;;;;;;1865634;76;26248;-88
2022/11/04 14:53:16;;;;;;;0.30;0.30;;;;;;;;;;1855659;77;26265;-89
2022/11/04 14:55:43;;;;;;;0.40;0.40;;;;;;;;;;1853449;75;26245;-88
2022/11/04 14:58:15;;;;;;;0.33;0.33;;;;;;;;;;1859384;75;26678;-89
2022/11/04 15:00:49;;;;;;;0.45;0.45;;;;;;;;;;1834840;77;26294;-87
2022/11/04 15:03:18;;;;;;;0.50;0.50;;;;;;;;;;1859685;75;25887;-88
2022/11/04 15:05:47;;;;;;;0.40;0.40;;;;;;;;;;1878425;76;26692;-88
2022/11/04 15:08:25;;;;;;;0.42;0.42;;;;;;;;;;1844366;75;26674;-89
2022/11/04 15:10:53;;;;;;;0.50;0.50;;;;;;;;;;1835378;75;26256;-91
2022/11/04 15:13:21;;;;;;;0.60;0.60;;;;;;;;;;1859361;77;26260;-89
2022/11/04 15:15:49;;;;;;;0.40;0.40;;;;;;;;;;1847748;77;26534;-87
2022/11/04 15:18:25;;;;;;;0.30;0.30;;;;;;;;;;1865678;76;26273;-87
2022/11/04 15:20:54;;;;;;;0.40;0.40;;;;;;;;;;1847232;75;26254;-89
2022/11/04 15:23:23;;;;;;;0.20;0.20;;;;;;;;;;1811093;76;26753;-88
2022/11/04 15:25:50;;;;;;;0.60;0.60;;;;;;;;;;1858875;75;26804;-88
2022/11/04 15:28:20;;;;;;;0.30;0.30;;;;;;;;;;1849703;76;26362;-88
2022/11/04 15:30:57;;;;;;;0.40;0.40;;;;;;;;;;1864101;75;26410;-90